Aydin, Turkey
Current Conditions -  °F | °C
As of 5:50 PM on Sunday 21 Dec 2014 (Local Time) from LTFE Reporting Station
Broken Clouds Broken Clouds  
Wind Chill: 14°   Ceiling: 10000
Heat Index: 14°   Visibility: 6mi
Dew Point: 11°   Wind: 7mph
Humidity: 82%   Direction: 120°ESE
Pressure: 30.06"   Gusts: NA
Location:  37.86°N, 27.84°E
Report Text: LTFE 211450Z 12006KT 9999 SCT035 BKN100 14/11 Q1018 NOSIG
Loading
Personal Weather Stations






























Interactive Weather Map New forecast layout! Learn more

10-Day Weather Forecast

Advertisements
Track Severe Weather on mobile